Terminal Aerodrome Forecast
Issued by NWS

Home | Current Version | Previous Version | Text Only | Print | Product List | Glossary On
Versions: 1 2 3 4 5 6 7 8 9 10 11 12 13
000
FTUS43 KILX 231700
TAFDEC
TAF
KDEC 231731Z 2318/2418 07010KT P6SM SKC
     FM232000 10010KT P6SM BKN100
     FM240300 12012KT P6SM BKN050
     FM241600 14014KT P6SM VCSH BKN050=

USA.gov is the U.S. government's official web portal to all federal, state and local government web resources and services.